T7PYR KASE-MYNN
Flight info
| Callsign | T7PYR |
|---|---|
| Flight time | N/A |
| Altitude | 45000 |
| Route | DCT LINDZ DCT IDENE DCT JNETT DCT POWDR DCT HGO DCT GCK DCT MAYJI DCT CARIN DCT ACORI DCT OMN Y185 CVIKK DCT HANKX DCT ZQA DCT |
| Aircraft | GL7T/M-SDFGIRWYB1/S |
Departure
| Time | 2026-03-29 08:36 |
|---|---|
| Airport | Aspen-Pitkin County Airport (Sardy Field) (KASE) |
Arrival
| Time | N/A |
|---|---|
| Airport | Lynden Pindling International Airport (MYNN) |
| Time | Latitude | Longitude | Altitude | Speed | Heading |
|---|---|---|---|---|---|
| 2026-03-29 08:29 | 39.22146 | -106.86659 | 7773 ft | 0 kts | 71° |
| 2026-03-29 08:31 | 39.22146 | -106.86658 | 7773 ft | 1 kts | 71° |
| 2026-03-29 08:31 | 39.22150 | -106.86629 | 7773 ft | 3 kts | 121° |
| 2026-03-29 08:32 | 39.22133 | -106.86613 | 7768 ft | 5 kts | 156° |
| 2026-03-29 08:32 | 39.22105 | -106.86599 | 7773 ft | 5 kts | 163° |
| 2026-03-29 08:32 | 39.22048 | -106.86596 | 7774 ft | 12 kts | 179° |
| 2026-03-29 08:32 | 39.21966 | -106.86583 | 7783 ft | 11 kts | 169° |
| 2026-03-29 08:33 | 39.21892 | -106.86555 | 7783 ft | 11 kts | 159° |
| 2026-03-29 08:33 | 39.21820 | -106.86520 | 7799 ft | 11 kts | 160° |
| 2026-03-29 08:33 | 39.21757 | -106.86496 | 7803 ft | 8 kts | 166° |
| 2026-03-29 08:33 | 39.21710 | -106.86476 | 7807 ft | 6 kts | 160° |
| 2026-03-29 08:34 | 39.21674 | -106.86458 | 7810 ft | 8 kts | 158° |
| 2026-03-29 08:34 | 39.21590 | -106.86416 | 7816 ft | 14 kts | 160° |
| 2026-03-29 08:34 | 39.21523 | -106.86386 | 7820 ft | 5 kts | 171° |
| 2026-03-29 08:34 | 39.21510 | -106.86384 | 7822 ft | 2 kts | 188° |
| 2026-03-29 08:35 | 39.21478 | -106.86436 | 7821 ft | 7 kts | 247° |
| 2026-03-29 08:35 | 39.21483 | -106.86485 | 7824 ft | 5 kts | 328° |
| 2026-03-29 08:35 | 39.21518 | -106.86504 | 7824 ft | 25 kts | 338° |
| 2026-03-29 08:35 | 39.21990 | -106.86729 | 7778 ft | 115 kts | 339° |
| 2026-03-29 08:36 | 39.22956 | -106.87196 | 7709 ft | 177 kts | 339° |
| 2026-03-29 08:36 | 39.24202 | -106.87801 | 8021 ft | 200 kts | 335° |
| 2026-03-29 08:36 | 39.25418 | -106.88938 | 8725 ft | 223 kts | 308° |
| 2026-03-29 08:36 | 39.26092 | -106.90743 | 9502 ft | 226 kts | 282° |
| 2026-03-29 08:37 | 39.26432 | -106.92745 | 10122 ft | 231 kts | 282° |
| 2026-03-29 08:37 | 39.26899 | -106.94741 | 10679 ft | 230 kts | 291° |
| 2026-03-29 08:37 | 39.27678 | -106.96529 | 11252 ft | 231 kts | 304° |
| 2026-03-29 08:37 | 39.28690 | -106.98152 | 11855 ft | 231 kts | 308° |
| 2026-03-29 08:38 | 39.29679 | -106.99754 | 12463 ft | 229 kts | 304° |
| 2026-03-29 08:38 | 39.30618 | -107.01408 | 13109 ft | 228 kts | 303° |
| 2026-03-29 08:38 | 39.31560 | -107.03063 | 13784 ft | 227 kts | 304° |
| 2026-03-29 08:38 | 39.32507 | -107.04702 | 14412 ft | 228 kts | 303° |
| 2026-03-29 08:39 | 39.33446 | -107.06334 | 15023 ft | 229 kts | 303° |
| 2026-03-29 08:39 | 39.34575 | -107.07830 | 15636 ft | 238 kts | 322° |
| 2026-03-29 08:39 | 39.36141 | -107.08597 | 16275 ft | 248 kts | 345° |
| 2026-03-29 08:39 | 39.37881 | -107.08452 | 16935 ft | 263 kts | 11° |
| 2026-03-29 08:40 | 39.39500 | -107.07250 | 17615 ft | 278 kts | 39° |
| 2026-03-29 08:40 | 39.40565 | -107.05110 | 18325 ft | 288 kts | 69° |
| 2026-03-29 08:40 | 39.40794 | -107.02552 | 18967 ft | 293 kts | 94° |
| 2026-03-29 08:40 | 39.40504 | -106.99864 | 19571 ft | 311 kts | 102° |
| 2026-03-29 08:41 | 39.40104 | -106.97039 | 20246 ft | 331 kts | 100° |
| 2026-03-29 08:41 | 39.39786 | -106.93947 | 20858 ft | 358 kts | 97° |
| 2026-03-29 08:41 | 39.39521 | -106.90652 | 21359 ft | 387 kts | 97° |
| 2026-03-29 08:41 | 39.39184 | -106.87077 | 21796 ft | 416 kts | 98° |
| 2026-03-29 08:42 | 39.38771 | -106.83228 | 22221 ft | 444 kts | 98° |
| 2026-03-29 08:42 | 39.38354 | -106.79155 | 22722 ft | 461 kts | 97° |
| 2026-03-29 08:42 | 39.37969 | -106.75084 | 23308 ft | 461 kts | 97° |
| 2026-03-29 08:42 | 39.37565 | -106.70923 | 23852 ft | 467 kts | 98° |
| 2026-03-29 08:43 | 39.37140 | -106.66795 | 24316 ft | 469 kts | 98° |
| 2026-03-29 08:43 | 39.36707 | -106.62585 | 24780 ft | 473 kts | 98° |
| 2026-03-29 08:43 | 39.36287 | -106.58361 | 25310 ft | 476 kts | 98° |
| 2026-03-29 08:43 | 39.35866 | -106.54144 | 25842 ft | 479 kts | 98° |
| 2026-03-29 08:44 | 39.35433 | -106.49855 | 26389 ft | 482 kts | 97° |
| 2026-03-29 08:44 | 39.35342 | -106.45482 | 26926 ft | 486 kts | 87° |
| 2026-03-29 08:44 | 39.35562 | -106.41145 | 27482 ft | 490 kts | 86° |
| 2026-03-29 08:44 | 39.35767 | -106.36711 | 28047 ft | 493 kts | 87° |
| 2026-03-29 08:45 | 39.35953 | -106.32318 | 28599 ft | 496 kts | 87° |
| 2026-03-29 08:45 | 39.36160 | -106.27835 | 29160 ft | 500 kts | 86° |
| 2026-03-29 08:45 | 39.36376 | -106.23308 | 29722 ft | 504 kts | 87° |
| 2026-03-29 08:45 | 39.36581 | -106.18749 | 30291 ft | 508 kts | 87° |
| 2026-03-29 08:46 | 39.36776 | -106.14211 | 30764 ft | 512 kts | 87° |
| 2026-03-29 08:46 | 39.36980 | -106.09579 | 31237 ft | 516 kts | 87° |
| 2026-03-29 08:46 | 39.37187 | -106.04979 | 31713 ft | 520 kts | 87° |
| 2026-03-29 08:46 | 39.37392 | -106.00267 | 32200 ft | 524 kts | 87° |
| 2026-03-29 08:47 | 39.37590 | -105.95581 | 32690 ft | 527 kts | 87° |
| 2026-03-29 08:47 | 39.37792 | -105.90816 | 33200 ft | 527 kts | 87° |
| 2026-03-29 08:47 | 39.37992 | -105.86131 | 33741 ft | 526 kts | 87° |
| 2026-03-29 08:47 | 39.38190 | -105.81398 | 34261 ft | 526 kts | 87° |
| 2026-03-29 08:48 | 39.38384 | -105.76671 | 34743 ft | 526 kts | 88° |
| 2026-03-29 08:48 | 39.38576 | -105.71979 | 35232 ft | 527 kts | 87° |
| 2026-03-29 08:48 | 39.38769 | -105.67228 | 35847 ft | 526 kts | 87° |
| 2026-03-29 08:48 | 39.38958 | -105.62527 | 36412 ft | 529 kts | 87° |
| 2026-03-29 08:49 | 39.39149 | -105.57739 | 36826 ft | 533 kts | 87° |
| 2026-03-29 08:49 | 39.39267 | -105.54572 | 37157 ft | 531 kts | 88° |
| 2026-03-29 08:49 | 39.38952 | -105.48253 | 37849 ft | 530 kts | 101° |
| 2026-03-29 08:49 | 39.38099 | -105.43580 | 38125 ft | 534 kts | 110° |
| 2026-03-29 08:50 | 39.36812 | -105.39127 | 38365 ft | 530 kts | 114° |
| 2026-03-29 08:50 | 39.35914 | -105.36175 | 38507 ft | 530 kts | 114° |
| 2026-03-29 08:50 | 39.34570 | -105.31723 | 38693 ft | 531 kts | 113° |
| 2026-03-29 08:50 | 39.33227 | -105.27254 | 38862 ft | 532 kts | 114° |
| 2026-03-29 08:51 | 39.31879 | -105.22799 | 39019 ft | 532 kts | 114° |
| 2026-03-29 08:51 | 39.30523 | -105.18344 | 39193 ft | 532 kts | 114° |
| 2026-03-29 08:51 | 39.29186 | -105.13941 | 39364 ft | 532 kts | 114° |
| 2026-03-29 08:51 | 39.27828 | -105.09472 | 39543 ft | 532 kts | 114° |
| 2026-03-29 08:52 | 39.26473 | -105.05023 | 39717 ft | 531 kts | 114° |
| 2026-03-29 08:52 | 39.25131 | -105.00625 | 39902 ft | 531 kts | 114° |
| 2026-03-29 08:52 | 39.23769 | -104.96176 | 40108 ft | 531 kts | 114° |
| 2026-03-29 08:52 | 39.22420 | -104.91767 | 40314 ft | 532 kts | 114° |
| 2026-03-29 08:53 | 39.21054 | -104.87308 | 40511 ft | 533 kts | 114° |
| 2026-03-29 08:53 | 39.19697 | -104.82893 | 40713 ft | 534 kts | 114° |
| 2026-03-29 08:53 | 39.18318 | -104.78415 | 40912 ft | 535 kts | 114° |
| 2026-03-29 08:53 | 39.16951 | -104.73980 | 41111 ft | 536 kts | 114° |
| 2026-03-29 08:54 | 39.15579 | -104.69532 | 41296 ft | 536 kts | 115° |
| 2026-03-29 08:54 | 39.14188 | -104.65032 | 41527 ft | 538 kts | 115° |
| 2026-03-29 08:54 | 39.12798 | -104.60546 | 41749 ft | 539 kts | 115° |
| 2026-03-29 08:54 | 39.11420 | -104.56104 | 41976 ft | 540 kts | 115° |
| 2026-03-29 08:55 | 39.10013 | -104.51573 | 42183 ft | 541 kts | 115° |
| 2026-03-29 08:55 | 39.08616 | -104.47083 | 42386 ft | 541 kts | 115° |
| 2026-03-29 08:55 | 39.07218 | -104.42598 | 42584 ft | 542 kts | 115° |
| 2026-03-29 08:55 | 39.05816 | -104.38110 | 42777 ft | 542 kts | 115° |
| 2026-03-29 08:56 | 39.04402 | -104.33588 | 42967 ft | 543 kts | 115° |
| 2026-03-29 08:56 | 39.03001 | -104.29116 | 43155 ft | 543 kts | 115° |
| 2026-03-29 08:56 | 39.01592 | -104.24623 | 43348 ft | 544 kts | 116° |
| 2026-03-29 08:56 | 39.00174 | -104.20112 | 43534 ft | 545 kts | 116° |
| 2026-03-29 08:57 | 38.98749 | -104.15582 | 43727 ft | 545 kts | 116° |
| 2026-03-29 08:57 | 38.97319 | -104.11050 | 43914 ft | 546 kts | 116° |
| 2026-03-29 08:57 | 38.95907 | -104.06575 | 44133 ft | 546 kts | 116° |
| 2026-03-29 08:57 | 38.94475 | -104.02050 | 44367 ft | 546 kts | 116° |
| 2026-03-29 08:58 | 38.93036 | -103.97509 | 44581 ft | 547 kts | 116° |
| 2026-03-29 08:58 | 38.91600 | -103.92984 | 44779 ft | 547 kts | 116° |
| 2026-03-29 08:58 | 38.90156 | -103.88440 | 44906 ft | 552 kts | 116° |
| 2026-03-29 08:58 | 38.88701 | -103.83879 | 44902 ft | 561 kts | 116° |
| 2026-03-29 08:59 | 38.85712 | -103.74500 | 44915 ft | 565 kts | 116° |
| 2026-03-29 08:59 | 38.82737 | -103.65214 | 44901 ft | 564 kts | 116° |
| 2026-03-29 09:00 | 38.79904 | -103.55849 | 44898 ft | 567 kts | 114° |
| 2026-03-29 09:00 | 38.77106 | -103.46403 | 44905 ft | 567 kts | 115° |
| 2026-03-29 09:01 | 38.74306 | -103.36949 | 44907 ft | 567 kts | 114° |
| 2026-03-29 09:01 | 38.71506 | -103.27535 | 44907 ft | 567 kts | 115° |
| 2026-03-29 09:02 | 38.68691 | -103.18107 | 44904 ft | 567 kts | 115° |
| 2026-03-29 09:02 | 38.65874 | -103.08697 | 44912 ft | 566 kts | 115° |
| 2026-03-29 09:03 | 38.63036 | -102.99260 | 44903 ft | 566 kts | 115° |
| 2026-03-29 09:03 | 38.60219 | -102.89914 | 44890 ft | 565 kts | 115° |
| 2026-03-29 09:04 | 38.57388 | -102.80562 | 44889 ft | 565 kts | 115° |
| 2026-03-29 09:04 | 38.54539 | -102.71178 | 44884 ft | 565 kts | 115° |
| 2026-03-29 09:05 | 38.51699 | -102.61859 | 44872 ft | 565 kts | 115° |
| 2026-03-29 09:05 | 38.48841 | -102.52509 | 44879 ft | 565 kts | 115° |
| 2026-03-29 09:06 | 38.45978 | -102.43179 | 44873 ft | 566 kts | 115° |
| 2026-03-29 09:06 | 38.43092 | -102.33801 | 44871 ft | 566 kts | 115° |
| 2026-03-29 09:07 | 38.40206 | -102.24458 | 44865 ft | 567 kts | 115° |
| 2026-03-29 09:07 | 38.37306 | -102.15101 | 44865 ft | 567 kts | 115° |
| 2026-03-29 09:08 | 38.34411 | -102.05789 | 44866 ft | 567 kts | 115° |
| 2026-03-29 09:08 | 38.31488 | -101.96420 | 44869 ft | 568 kts | 115° |
| 2026-03-29 09:09 | 38.28579 | -101.87125 | 44871 ft | 568 kts | 115° |
| 2026-03-29 09:09 | 38.25646 | -101.77787 | 44876 ft | 568 kts | 115° |
| 2026-03-29 09:10 | 38.22716 | -101.68487 | 44876 ft | 568 kts | 115° |
| 2026-03-29 09:10 | 38.19771 | -101.59172 | 44880 ft | 568 kts | 115° |
| 2026-03-29 09:11 | 38.16811 | -101.49840 | 44889 ft | 567 kts | 115° |
| 2026-03-29 09:11 | 38.13871 | -101.40603 | 44889 ft | 567 kts | 115° |
| 2026-03-29 09:12 | 38.10902 | -101.31305 | 44893 ft | 566 kts | 115° |
| 2026-03-29 09:12 | 38.07943 | -101.22067 | 44903 ft | 565 kts | 115° |
| 2026-03-29 09:13 | 38.04975 | -101.12833 | 44912 ft | 565 kts | 115° |
| 2026-03-29 09:13 | 38.02006 | -101.03623 | 44924 ft | 564 kts | 115° |
| 2026-03-29 09:14 | 37.99045 | -100.94470 | 44931 ft | 563 kts | 115° |
| 2026-03-29 09:14 | 37.96058 | -100.85264 | 44943 ft | 563 kts | 115° |
| 2026-03-29 09:15 | 37.93071 | -100.76089 | 44949 ft | 563 kts | 116° |
| 2026-03-29 09:15 | 37.90218 | -100.66871 | 44954 ft | 563 kts | 114° |
| 2026-03-29 09:16 | 37.86043 | -100.53019 | 44955 ft | 563 kts | 114° |
| 2026-03-29 09:17 | 37.83259 | -100.43762 | 44960 ft | 563 kts | 114° |
| 2026-03-29 09:17 | 37.80442 | -100.34487 | 44973 ft | 563 kts | 114° |
| 2026-03-29 09:18 | 37.77645 | -100.25266 | 44979 ft | 563 kts | 114° |
| 2026-03-29 09:18 | 37.74836 | -100.16066 | 44978 ft | 563 kts | 114° |
| 2026-03-29 09:19 | 37.72004 | -100.06804 | 44983 ft | 562 kts | 114° |
| 2026-03-29 09:19 | 37.69184 | -99.97621 | 44981 ft | 562 kts | 114° |
| 2026-03-29 09:20 | 37.66346 | -99.88402 | 44986 ft | 562 kts | 114° |
| 2026-03-29 09:20 | 37.63508 | -99.79220 | 44991 ft | 561 kts | 114° |
| 2026-03-29 09:21 | 37.60670 | -99.70067 | 44996 ft | 561 kts | 114° |
| 2026-03-29 09:21 | 37.57838 | -99.60959 | 45033 ft | 560 kts | 114° |
| 2026-03-29 09:22 | 37.54980 | -99.51800 | 45045 ft | 560 kts | 114° |
| 2026-03-29 09:22 | 37.52128 | -99.42687 | 45025 ft | 560 kts | 114° |
| 2026-03-29 09:23 | 37.49253 | -99.33535 | 45029 ft | 560 kts | 115° |
| 2026-03-29 09:23 | 37.46391 | -99.24449 | 45060 ft | 560 kts | 115° |
| 2026-03-29 09:24 | 37.43505 | -99.15320 | 45066 ft | 561 kts | 115° |
| 2026-03-29 09:24 | 37.40620 | -99.06217 | 45070 ft | 561 kts | 115° |
| 2026-03-29 09:25 | 37.37725 | -98.97118 | 45079 ft | 562 kts | 115° |
| 2026-03-29 09:25 | 37.34803 | -98.87963 | 45080 ft | 562 kts | 115° |
| 2026-03-29 09:26 | 37.34327 | -98.86475 | 45083 ft | 562 kts | 114° |
| 2026-03-29 09:26 | 37.33994 | -98.85482 | 45113 ft | 1193 kts | 116° |
| 2026-03-29 09:26 | 37.31369 | -98.78052 | 43590 ft | 783 kts | 116° |
| 2026-03-29 09:26 | 37.29450 | -98.72613 | 45525 ft | 602 kts | 116° |
| 2026-03-29 09:27 | 37.27863 | -98.68024 | 45763 ft | 565 kts | 116° |
| 2026-03-29 09:27 | 37.26278 | -98.63918 | 45327 ft | 968 kts | 117° |
| 2026-03-29 09:28 | 37.23672 | -98.57287 | 47843 ft | 713 kts | 118° |